Portada
METAR-TAF:

METAR-TAF

Aeroports :

In Aménas, Algèria

latitud: 28-03N, longitud: 009-38E, altitud: 562 m

Observació

L'informe es va fer fa 29 minuts, a les 03:00 UTC
Vent 7 kt del Nord
Temperatura 24°C
Humitat 38%
Pressió 1012 hPa
Visibilitat: 7000 m

METAR: DAUZ 070300Z 01007KT 7000 NSC 24/09 Q1012

Hora: 04:29 (03:29 UTC)

Pronòstic

L'informe es va fer fa 4 hores i 29 minuts, a les 23:00 UTC
Pronòstic vàlid del 07 a les 00 UTC al 07 a les 24 UTC
Vent 10 kt del Nord
Visibilitat: 6000 m
Probabilitat 40%
l' 07 a les 00 UTC al 07 a les 06 UTC
Vent 15 kt del Nord/Nord-Est amb ràfegues de 25 kt
Visibilitat: 4000 m
torb baixa de sorra

TAF: DAUZ 062300Z 0700/0724 36010KT 6000 NSC PROB40 0700/0706 02015G25KT 4000 DRSA

Observacions i pronòstics meteorològics de més de 4000 aeroports (METAR i TAF).

Les estacions disponibles són els punts grocs i vermells al mapa.

Posi el ratolí al punt desitjat per veure el nom de l'estació.

Feu clic per veure les observacions i els pronòstics meteorològics.

Per canviar el mapa: feu clic els botons verds amb una creu de color negre per apropar; al botó verd amb un guió per allunyar la imatge; o en les fletxes verdes per a mapes adjacents.


METAR-TAF: